createdAt,value
2023-03-26T00:01:32.235Z,82.30
2023-03-26T00:03:58.938Z,82.30
2023-03-26T00:06:27.395Z,82.00
2023-03-26T00:08:54.799Z,82.20
2023-03-26T00:11:22.110Z,82.30
2023-03-26T00:13:48.785Z,82.40
2023-03-26T00:16:17.064Z,82.40
2023-03-26T00:18:44.233Z,82.80
2023-03-26T00:21:13.452Z,83.00
2023-03-26T00:23:40.155Z,82.70
2023-03-26T00:26:06.916Z,82.70
2023-03-26T00:28:33.526Z,82.70
2023-03-26T00:31:02.509Z,83.00
2023-03-26T00:33:29.441Z,82.60
2023-03-26T00:35:57.308Z,82.70
2023-03-26T00:38:24.440Z,82.80
2023-03-26T00:40:51.602Z,82.70
2023-03-26T00:43:18.962Z,82.80
2023-03-26T00:45:49.800Z,82.70
2023-03-26T00:48:16.603Z,82.50
2023-03-26T00:50:44.387Z,82.50
2023-03-26T00:53:11.366Z,82.50
2023-03-26T00:55:38.345Z,82.50
2023-03-26T00:58:04.976Z,82.60
2023-03-26T01:03:24.803Z,82.90
2023-03-26T01:06:11.353Z,82.90
2023-03-26T01:08:43.115Z,82.90
2023-03-26T01:11:21.564Z,83.00
2023-03-26T01:13:50.892Z,83.00
2023-03-26T01:16:41.324Z,83.10
2023-03-26T01:19:11.829Z,83.20
2023-03-26T01:21:38.619Z,83.30
2023-03-26T01:24:09.246Z,83.50
2023-03-26T01:26:54.435Z,83.60
2023-03-26T01:29:44.218Z,83.60
2023-03-26T01:32:29.711Z,83.70
2023-03-26T01:35:24.337Z,83.70
2023-03-26T01:38:09.743Z,83.70
2023-03-26T01:40:36.765Z,83.80
2023-03-26T01:43:09.175Z,84.00
2023-03-26T01:45:38.156Z,84.10
2023-03-26T01:48:06.320Z,84.10
2023-03-26T01:50:33.038Z,84.10
2023-03-26T01:52:59.827Z,84.20
2023-03-26T01:55:31.918Z,84.20
2023-03-26T01:58:24.008Z,84.30
2023-03-26T02:00:59.345Z,84.20
2023-03-26T02:03:30.368Z,84.10
2023-03-26T02:06:05.589Z,84.20
2023-03-26T02:08:43.914Z,84.10
2023-03-26T02:11:12.955Z,84.10
2023-03-26T02:13:41.444Z,84.20
2023-03-26T02:16:09.798Z,84.20
2023-03-26T02:18:36.595Z,84.00
2023-03-26T02:21:07.368Z,84.10
2023-03-26T02:23:34.099Z,84.10
2023-03-26T02:26:00.799Z,84.10
2023-03-26T02:28:27.410Z,84.10
2023-03-26T02:30:54.029Z,84.10
2023-03-26T02:33:20.652Z,84.10
2023-03-26T02:35:47.413Z,84.10
2023-03-26T02:38:14.201Z,84.10
2023-03-26T02:40:41.449Z,84.10
2023-03-26T02:43:08.260Z,84.10
2023-03-26T02:45:35.065Z,84.10
2023-03-26T02:48:01.840Z,84.10
2023-03-26T02:50:28.505Z,84.20
2023-03-26T02:52:55.682Z,84.10
2023-03-26T02:55:22.362Z,84.10
2023-03-26T02:57:49.019Z,84.10
2023-03-26T03:00:15.853Z,84.10
2023-03-26T03:02:42.563Z,84.20
2023-03-26T03:05:09.443Z,84.20
2023-03-26T03:07:36.078Z,84.20
2023-03-26T03:10:02.769Z,84.20
2023-03-26T03:12:29.612Z,84.40
2023-03-26T03:14:56.277Z,84.30
2023-03-26T03:17:23.006Z,84.40
2023-03-26T03:19:49.690Z,84.50
2023-03-26T03:22:16.413Z,84.60
2023-03-26T03:24:43.061Z,84.70
2023-03-26T03:27:09.951Z,84.70
2023-03-26T03:29:36.592Z,84.70
2023-03-26T03:32:03.375Z,84.80
2023-03-26T03:34:30.062Z,84.90
2023-03-26T03:36:56.713Z,84.90
2023-03-26T03:39:23.457Z,85.00
2023-03-26T03:41:50.141Z,85.10
2023-03-26T03:44:16.852Z,85.20
2023-03-26T03:46:43.515Z,85.30
2023-03-26T03:49:10.223Z,85.40
2023-03-26T03:51:36.917Z,85.40
2023-03-26T03:54:03.662Z,85.50
2023-03-26T03:56:30.397Z,85.60
2023-03-26T03:58:57.037Z,85.60
2023-03-26T04:01:23.831Z,85.70
2023-03-26T04:03:50.759Z,85.70
2023-03-26T04:06:17.581Z,85.80
2023-03-26T04:08:45.204Z,85.80
2023-03-26T04:11:13.231Z,85.90
2023-03-26T04:13:39.931Z,86.00
2023-03-26T04:16:18.054Z,86.10
2023-03-26T04:18:44.719Z,86.10
2023-03-26T04:21:11.392Z,86.10
2023-03-26T04:23:38.400Z,86.20
2023-03-26T04:26:06.407Z,86.20
2023-03-26T04:28:52.900Z,86.30
2023-03-26T04:31:21.742Z,86.40
2023-03-26T04:33:51.971Z,86.40
2023-03-26T04:36:26.669Z,86.40
2023-03-26T04:38:53.340Z,86.40
2023-03-26T04:41:20.057Z,86.40
2023-03-26T04:43:46.788Z,86.40
2023-03-26T04:46:14.242Z,86.40
2023-03-26T04:48:40.959Z,86.40
2023-03-26T04:51:07.748Z,86.30
2023-03-26T04:53:34.524Z,86.40
2023-03-26T04:56:14.278Z,86.40
2023-03-26T04:58:40.925Z,86.30
2023-03-26T05:01:10.236Z,86.30
2023-03-26T05:03:37.634Z,86.30
2023-03-26T05:06:04.648Z,86.30
2023-03-26T05:08:31.362Z,86.30
2023-03-26T05:10:58.172Z,86.20
2023-03-26T05:13:24.875Z,86.30
2023-03-26T05:15:51.562Z,86.30
2023-03-26T05:18:18.236Z,86.30
2023-03-26T05:20:44.885Z,86.40
2023-03-26T05:23:11.785Z,86.50
2023-03-26T05:25:38.755Z,86.60
2023-03-26T05:28:05.431Z,86.70
2023-03-26T05:30:32.084Z,86.70
2023-03-26T05:32:58.803Z,86.70
2023-03-26T05:35:25.527Z,87.00
2023-03-26T05:37:52.213Z,86.90
2023-03-26T05:40:19.212Z,87.00
2023-03-26T05:42:45.911Z,87.00
2023-03-26T05:45:13.452Z,87.20
2023-03-26T05:47:40.200Z,87.20
2023-03-26T05:50:07.487Z,87.20
2023-03-26T05:52:35.167Z,87.20
2023-03-26T05:55:02.103Z,87.20
2023-03-26T05:57:34.535Z,87.30
2023-03-26T06:00:02.417Z,87.30
2023-03-26T06:02:29.217Z,87.40
2023-03-26T06:04:59.243Z,87.40
2023-03-26T06:07:26.079Z,87.40
2023-03-26T06:09:52.975Z,87.50
2023-03-26T06:12:19.640Z,87.50
2023-03-26T06:14:46.476Z,87.50
2023-03-26T06:17:13.356Z,87.50
2023-03-26T06:19:40.082Z,87.40
2023-03-26T06:22:06.825Z,87.30
2023-03-26T06:24:33.622Z,87.20
2023-03-26T06:27:00.347Z,87.20
2023-03-26T06:29:27.176Z,87.30
2023-03-26T06:31:53.962Z,87.40
2023-03-26T06:34:21.041Z,87.50
2023-03-26T06:36:47.941Z,87.60
2023-03-26T06:39:16.554Z,87.70
2023-03-26T06:41:43.352Z,87.60
2023-03-26T06:44:10.031Z,87.60
2023-03-26T06:46:36.841Z,87.70
2023-03-26T06:49:03.575Z,87.70
2023-03-26T06:51:30.257Z,87.70
2023-03-26T06:53:56.921Z,87.80
2023-03-26T06:56:23.552Z,87.70
2023-03-26T06:58:50.188Z,87.80
2023-03-26T07:01:16.868Z,87.80
2023-03-26T07:03:43.598Z,87.80
2023-03-26T07:06:10.373Z,87.80
2023-03-26T07:08:37.039Z,87.90
2023-03-26T07:11:03.826Z,88.10
2023-03-26T07:13:30.478Z,88.10
2023-03-26T07:15:57.197Z,88.20
2023-03-26T07:18:23.794Z,88.10
2023-03-26T07:20:50.819Z,88.30
2023-03-26T07:23:17.769Z,88.40
2023-03-26T07:25:44.525Z,88.50
2023-03-26T07:28:29.318Z,88.50
2023-03-26T07:31:07.248Z,88.70
2023-03-26T07:33:45.669Z,88.70
2023-03-26T07:36:21.117Z,88.60
2023-03-26T07:38:51.529Z,88.70
2023-03-26T07:41:30.583Z,88.90
2023-03-26T07:44:33.642Z,89.00
2023-03-26T07:47:02.363Z,88.90
2023-03-26T07:49:29.243Z,88.90
2023-03-26T07:51:56.139Z,88.90
2023-03-26T07:54:23.113Z,89.10
2023-03-26T07:56:58.043Z,89.20
2023-03-26T07:59:34.643Z,89.20
2023-03-26T08:02:20.102Z,89.30
2023-03-26T08:04:52.960Z,89.40
2023-03-26T08:07:57.268Z,89.50
2023-03-26T08:10:28.292Z,89.40
2023-03-26T08:13:04.095Z,89.50
2023-03-26T08:15:57.235Z,89.60
2023-03-26T08:18:30.794Z,89.60
2023-03-26T08:21:18.802Z,89.60
2023-03-26T08:23:51.947Z,89.70
2023-03-26T08:26:42.517Z,89.70
2023-03-26T08:29:31.479Z,89.70
2023-03-26T08:31:58.218Z,89.90
2023-03-26T08:34:25.019Z,89.90
2023-03-26T08:36:51.681Z,89.90
2023-03-26T08:39:18.353Z,89.90
2023-03-26T08:42:00.506Z,90.00
2023-03-26T08:44:42.324Z,90.10
2023-03-26T08:47:26.868Z,90.20
2023-03-26T08:50:21.440Z,90.00
2023-03-26T08:53:07.050Z,89.90
2023-03-26T08:55:33.764Z,90.10
2023-03-26T08:58:16.703Z,90.10
2023-03-26T09:01:15.320Z,90.10
2023-03-26T09:04:03.948Z,90.20
2023-03-26T09:06:42.535Z,90.20
2023-03-26T09:09:21.087Z,90.40
2023-03-26T09:12:29.252Z,90.20
2023-03-26T09:15:23.234Z,89.80
2023-03-26T09:18:14.619Z,89.70
2023-03-26T09:21:20.102Z,89.70
2023-03-26T09:24:14.306Z,89.60
2023-03-26T09:27:03.059Z,89.20
2023-03-26T09:30:02.845Z,89.10
2023-03-26T09:32:56.620Z,89.00
2023-03-26T09:35:52.246Z,89.00
2023-03-26T09:38:28.308Z,88.90
2023-03-26T09:41:04.186Z,89.00
2023-03-26T09:43:42.296Z,88.80
2023-03-26T09:46:16.581Z,88.90
2023-03-26T09:48:52.310Z,88.80
2023-03-26T09:51:40.396Z,88.50
2023-03-26T09:54:37.942Z,88.10
2023-03-26T09:57:38.334Z,87.60
2023-03-26T10:00:07.893Z,87.30
2023-03-26T10:06:03.974Z,87.20
2023-03-26T10:08:33.142Z,87.00
2023-03-26T10:11:11.375Z,87.00
2023-03-26T10:14:07.009Z,87.00
2023-03-26T10:16:56.432Z,87.10
2023-03-26T10:19:55.346Z,87.00
2023-03-26T10:22:30.948Z,87.30
2023-03-26T10:25:21.941Z,87.30
2023-03-26T10:27:48.881Z,87.30
2023-03-26T10:30:18.354Z,87.10
2023-03-26T10:33:37.695Z,86.90
2023-03-26T10:36:27.326Z,86.70
2023-03-26T10:39:36.836Z,86.40
2023-03-26T10:42:42.713Z,86.50
2023-03-26T10:45:30.512Z,86.20
2023-03-26T10:48:03.138Z,85.80
2023-03-26T10:51:01.696Z,85.60
2023-03-26T10:53:49.603Z,85.80
2023-03-26T10:56:28.505Z,85.90
2023-03-26T10:58:56.959Z,85.60
2023-03-26T11:01:54.831Z,85.50
2023-03-26T11:04:47.655Z,85.50
2023-03-26T11:07:55.484Z,85.60
2023-03-26T11:10:42.971Z,85.60
2023-03-26T11:13:29.433Z,85.40
2023-03-26T11:16:09.568Z,85.40
2023-03-26T11:18:48.651Z,85.40
2023-03-26T11:21:37.180Z,85.20
2023-03-26T11:24:14.513Z,85.30
2023-03-26T11:26:56.789Z,85.50
2023-03-26T11:29:54.304Z,85.40
2023-03-26T11:32:24.348Z,85.00
2023-03-26T11:35:05.602Z,85.20
2023-03-26T11:37:34.420Z,85.20
2023-03-26T11:40:02.389Z,85.00
2023-03-26T11:42:29.459Z,84.80
2023-03-26T11:45:00.625Z,84.80
2023-03-26T11:47:55.783Z,84.80
2023-03-26T11:50:25.751Z,84.70
2023-03-26T11:52:53.965Z,84.80
2023-03-26T11:55:20.637Z,85.10
2023-03-26T11:57:53.252Z,85.10
2023-03-26T12:00:21.016Z,85.00
2023-03-26T12:02:48.095Z,84.70
2023-03-26T12:05:24.263Z,84.50
2023-03-26T12:07:55.500Z,84.40
2023-03-26T12:10:33.219Z,84.20
2023-03-26T12:13:21.170Z,83.90
2023-03-26T12:15:47.828Z,84.00
2023-03-26T12:18:34.399Z,84.10
2023-03-26T12:21:05.196Z,84.10
2023-03-26T12:23:50.953Z,84.50
2023-03-26T12:26:21.410Z,84.70
2023-03-26T12:28:51.138Z,84.60
2023-03-26T12:31:17.782Z,84.00
2023-03-26T12:34:04.149Z,83.40
2023-03-26T12:36:32.202Z,83.30
2023-03-26T12:39:15.958Z,83.80
2023-03-26T12:44:43.521Z,83.80
2023-03-26T12:44:56.160Z,84.00
2023-03-26T12:48:00.298Z,84.20
2023-03-26T12:50:16.733Z,84.70
2023-03-26T12:52:55.515Z,84.50
2023-03-26T12:55:42.313Z,83.70
2023-03-26T12:58:26.742Z,83.10
2023-03-26T13:01:23.859Z,82.10
2023-03-26T13:04:05.264Z,81.20
2023-03-26T13:06:59.155Z,80.30
2023-03-26T13:09:37.419Z,80.20
2023-03-26T13:12:36.593Z,80.60
2023-03-26T13:15:12.056Z,80.40
2023-03-26T13:17:47.869Z,80.50
2023-03-26T13:20:31.439Z,80.00
2023-03-26T13:23:22.632Z,80.30
2023-03-26T13:26:02.252Z,80.70
2023-03-26T13:28:43.441Z,80.70
2023-03-26T13:31:35.818Z,81.50
2023-03-26T13:34:26.724Z,82.40
2023-03-26T13:37:05.733Z,82.30
2023-03-26T13:39:56.421Z,82.00
2023-03-26T13:42:41.904Z,81.10
2023-03-26T13:45:30.057Z,80.80
2023-03-26T13:47:57.491Z,80.80
2023-03-26T13:50:35.599Z,80.80
2023-03-26T13:53:18.334Z,80.80
2023-03-26T13:55:57.160Z,81.10
2023-03-26T14:01:12.479Z,80.40
2023-03-26T14:03:48.348Z,80.40
2023-03-26T14:06:24.528Z,79.70
2023-03-26T14:08:54.982Z,78.90
2023-03-26T14:11:28.000Z,78.70
2023-03-26T14:13:56.161Z,78.10
2023-03-26T14:16:26.451Z,77.30
2023-03-26T14:19:12.070Z,76.90
2023-03-26T14:21:48.608Z,76.60
2023-03-26T14:24:18.080Z,76.60
2023-03-26T14:26:53.955Z,76.30
2023-03-26T14:29:23.437Z,76.30
2023-03-26T14:32:27.782Z,76.20
2023-03-26T14:35:16.654Z,76.80
2023-03-26T14:38:02.180Z,76.80
2023-03-26T14:40:49.156Z,76.40
2023-03-26T14:43:19.743Z,76.60
2023-03-26T14:45:55.865Z,76.50
2023-03-26T14:48:34.264Z,75.70
2023-03-26T14:51:37.698Z,75.10
2023-03-26T14:54:07.870Z,74.30
2023-03-26T14:57:06.287Z,73.40
2023-03-26T14:59:51.614Z,72.50
2023-03-26T15:02:42.856Z,72.20
2023-03-26T15:05:43.427Z,71.50
2023-03-26T15:08:59.816Z,70.40
2023-03-26T15:11:48.233Z,71.30
2023-03-26T15:14:35.475Z,71.10
2023-03-26T15:17:16.838Z,71.00
2023-03-26T15:20:09.815Z,69.60
2023-03-26T15:22:58.694Z,69.80
2023-03-26T15:25:34.661Z,69.30
2023-03-26T15:28:39.254Z,68.70
2023-03-26T15:31:10.491Z,68.10
2023-03-26T15:33:53.129Z,68.60
2023-03-26T15:36:24.206Z,68.20
2023-03-26T15:39:14.166Z,67.90
2023-03-26T15:42:03.489Z,66.80
2023-03-26T15:44:53.687Z,67.40
2023-03-26T15:48:05.920Z,66.60
2023-03-26T15:50:52.936Z,66.50
2023-03-26T15:53:44.035Z,65.80
2023-03-26T15:56:26.302Z,66.30
2023-03-26T15:58:58.330Z,66.80
2023-03-26T16:01:44.332Z,66.70
2023-03-26T16:04:36.266Z,66.50
2023-03-26T16:07:14.894Z,66.60
2023-03-26T16:09:53.983Z,66.40
2023-03-26T16:12:30.984Z,66.10
2023-03-26T16:15:07.679Z,65.70
2023-03-26T16:18:09.408Z,65.40
2023-03-26T16:20:50.909Z,64.60
2023-03-26T16:23:47.864Z,64.90
2023-03-26T16:26:43.151Z,65.00
2023-03-26T16:29:22.766Z,64.60
2023-03-26T16:32:11.613Z,64.60
2023-03-26T16:34:45.586Z,64.90
2023-03-26T16:37:34.255Z,64.70
2023-03-26T16:40:19.035Z,63.90
2023-03-26T16:42:49.595Z,63.60
2023-03-26T16:45:41.933Z,63.90
2023-03-26T16:48:25.889Z,63.80
2023-03-26T16:51:15.747Z,63.10
2023-03-26T16:53:48.607Z,62.80
2023-03-26T16:56:55.688Z,62.90
2023-03-26T17:00:04.956Z,62.90
2023-03-26T17:03:12.069Z,63.10
2023-03-26T17:06:01.353Z,62.80
2023-03-26T17:08:40.200Z,62.40
2023-03-26T17:11:36.740Z,62.90
2023-03-26T17:14:43.971Z,62.90
2023-03-26T17:17:49.370Z,62.90
2023-03-26T17:20:38.535Z,62.20
2023-03-26T17:23:22.281Z,62.70
2023-03-26T17:25:57.284Z,62.70
2023-03-26T17:28:54.182Z,62.60
2023-03-26T17:31:52.020Z,62.30
2023-03-26T17:34:40.764Z,62.20
2023-03-26T17:37:25.481Z,62.10
2023-03-26T17:40:01.064Z,62.10
2023-03-26T17:42:31.720Z,62.00
2023-03-26T17:45:08.063Z,62.20
2023-03-26T17:47:40.180Z,62.30
2023-03-26T17:50:08.125Z,62.30
2023-03-26T17:52:43.875Z,62.50
2023-03-26T17:55:12.654Z,62.60
2023-03-26T17:57:47.589Z,62.60
2023-03-26T18:00:16.915Z,62.40
2023-03-26T18:02:52.329Z,62.20
2023-03-26T18:05:19.688Z,61.40
2023-03-26T18:08:05.967Z,61.70
2023-03-26T18:10:52.026Z,61.40
2023-03-26T18:13:24.854Z,61.40
2023-03-26T18:16:14.619Z,61.10
2023-03-26T18:18:50.854Z,60.70
2023-03-26T18:21:40.613Z,60.10
2023-03-26T18:24:09.192Z,60.20
2023-03-26T18:26:43.569Z,60.10
2023-03-26T18:29:17.325Z,60.10
2023-03-26T18:31:44.536Z,60.10
2023-03-26T18:34:18.779Z,60.20
2023-03-26T18:37:08.857Z,59.60
2023-03-26T18:39:36.049Z,58.90
2023-03-26T18:42:03.224Z,58.70
2023-03-26T18:44:30.011Z,58.40
2023-03-26T18:46:58.712Z,58.00
2023-03-26T18:49:26.815Z,57.90
2023-03-26T18:51:57.329Z,57.90
2023-03-26T18:54:25.247Z,57.80
2023-03-26T18:56:52.348Z,57.70
2023-03-26T18:59:32.244Z,57.70
2023-03-26T19:02:00.307Z,57.90
2023-03-26T19:04:27.989Z,57.90
2023-03-26T19:06:55.256Z,58.10
2023-03-26T19:09:31.096Z,58.30
2023-03-26T19:12:15.982Z,58.70
2023-03-26T19:15:01.918Z,58.90
2023-03-26T19:17:31.428Z,59.20
2023-03-26T19:19:58.211Z,59.10
2023-03-26T19:22:24.868Z,59.20
2023-03-26T19:25:02.423Z,59.10
2023-03-26T19:27:29.178Z,58.90
2023-03-26T19:29:55.866Z,59.00
2023-03-26T19:32:30.979Z,59.10
2023-03-26T19:34:58.943Z,58.80
2023-03-26T19:37:27.339Z,59.00
2023-03-26T19:39:55.078Z,59.30
2023-03-26T19:42:25.887Z,59.30
2023-03-26T19:44:54.140Z,59.50
2023-03-26T19:47:46.396Z,59.40
2023-03-26T19:50:27.068Z,59.60
2023-03-26T19:53:18.813Z,59.80
2023-03-26T19:55:57.786Z,59.80
2023-03-26T19:58:26.099Z,60.00
2023-03-26T20:00:53.081Z,59.90
2023-03-26T20:03:31.517Z,60.00
2023-03-26T20:06:23.647Z,60.00
2023-03-26T20:08:54.877Z,60.20
2023-03-26T20:11:27.036Z,60.20
2023-03-26T20:13:53.903Z,60.50
2023-03-26T20:16:27.207Z,60.70
2023-03-26T20:18:53.978Z,61.00
2023-03-26T20:21:21.465Z,61.20
2023-03-26T20:23:48.187Z,61.50
2023-03-26T20:26:15.812Z,61.70
2023-03-26T20:28:48.248Z,61.90
2023-03-26T20:31:23.815Z,62.20
2023-03-26T20:33:50.910Z,62.50
2023-03-26T20:36:32.635Z,62.60
2023-03-26T20:39:05.057Z,62.70
2023-03-26T20:41:31.871Z,62.80
2023-03-26T20:43:58.665Z,62.80
2023-03-26T20:46:30.860Z,62.60
2023-03-26T20:48:58.922Z,62.50
2023-03-26T20:51:25.761Z,62.30
2023-03-26T20:53:52.413Z,62.30
2023-03-26T20:56:19.377Z,62.00
2023-03-26T20:58:47.894Z,61.70
2023-03-26T21:01:15.888Z,61.60
2023-03-26T21:03:42.624Z,61.40
2023-03-26T21:06:11.279Z,61.50
2023-03-26T21:08:38.367Z,61.50
2023-03-26T21:11:10.202Z,61.50
2023-03-26T21:13:45.042Z,61.60
2023-03-26T21:16:12.262Z,61.60
2023-03-26T21:18:39.582Z,61.80
2023-03-26T21:21:24.392Z,61.80
2023-03-26T21:24:20.914Z,61.90
2023-03-26T21:27:01.740Z,62.10
2023-03-26T21:29:28.665Z,62.20
2023-03-26T21:31:55.581Z,62.30
2023-03-26T21:34:22.779Z,62.60
2023-03-26T21:36:49.784Z,62.80
2023-03-26T21:39:16.755Z,62.90
2023-03-26T21:41:45.597Z,62.90
2023-03-26T21:44:12.303Z,63.10
2023-03-26T21:46:41.669Z,63.20
2023-03-26T21:49:08.647Z,63.40
2023-03-26T21:51:35.633Z,63.50
2023-03-26T21:54:02.474Z,63.50
2023-03-26T21:57:04.196Z,63.60
2023-03-26T21:59:53.619Z,63.90
2023-03-26T22:02:23.571Z,64.00
2023-03-26T22:05:15.812Z,63.80
2023-03-26T22:07:52.922Z,63.90
2023-03-26T22:10:20.209Z,64.00
2023-03-26T22:12:46.860Z,64.10
2023-03-26T22:15:13.661Z,64.10
2023-03-26T22:17:43.129Z,64.00
2023-03-26T22:20:11.408Z,63.90
2023-03-26T22:22:38.766Z,63.90
2023-03-26T22:25:05.502Z,63.90
2023-03-26T22:27:32.134Z,63.90
2023-03-26T22:30:11.035Z,63.70
2023-03-26T22:32:37.717Z,63.70
2023-03-26T22:35:04.867Z,63.60
2023-03-26T22:37:31.566Z,63.60
2023-03-26T22:39:58.210Z,63.70
2023-03-26T22:42:24.904Z,63.70
2023-03-26T22:44:51.634Z,63.70
2023-03-26T22:47:18.365Z,63.70
2023-03-26T22:49:45.063Z,63.70
2023-03-26T22:52:12.727Z,63.70
2023-03-26T22:54:39.470Z,63.60
2023-03-26T22:57:06.292Z,63.60
2023-03-26T22:59:33.022Z,63.60
2023-03-26T23:01:59.680Z,63.70
2023-03-26T23:04:31.502Z,63.70
2023-03-26T23:06:59.106Z,63.80
2023-03-26T23:09:25.789Z,64.00
2023-03-26T23:11:52.450Z,64.10
2023-03-26T23:14:19.943Z,64.10
2023-03-26T23:16:46.653Z,64.10
2023-03-26T23:19:13.430Z,64.20
2023-03-26T23:21:40.129Z,64.00
2023-03-26T23:24:06.925Z,64.20
2023-03-26T23:26:43.908Z,64.10
2023-03-26T23:29:16.658Z,64.10
2023-03-26T23:31:43.441Z,64.10
2023-03-26T23:34:10.109Z,64.00
2023-03-26T23:36:36.855Z,63.90
2023-03-26T23:39:03.687Z,64.00
2023-03-26T23:41:30.368Z,64.10
2023-03-26T23:43:57.029Z,64.20
2023-03-26T23:46:24.919Z,64.30
2023-03-26T23:48:52.183Z,64.40
2023-03-26T23:51:19.506Z,64.50
2023-03-26T23:53:46.549Z,64.70
2023-03-26T23:56:13.242Z,64.80
2023-03-26T23:58:40.146Z,64.90
